If you wish to contribute or participate in the discussions about articles you are invited to join SKYbrary as a registered user

 Actions

Toulon-Hyères Airport

From SKYbrary Wiki

LFTH
Airport
ICAO: LFTH – IATA: TLN
Summary
Name Toulon-Hyères Airport
Region Europe
Territory France FR.gif
Location , Provence-Alpes-Cote d'Azur
Serving Hyeres
Elevation 2.134 m
7 ft
7 ft2.134 m
Type medium airport
Coordinates 43° 5' 50.28" N, 6° 8' 45.71" E
Runways
Designator Length Width Surface ROPS
5/23 2120 m6,955.381 ft
45 m147.638 ft
ASP yes/yes
14/32 1900 m6,233.596 ft
50 m164.042 ft
ASP no/no


METAR
Observation LFTH 191000Z AUTO 13006KT 100V190 9999 SCT020 28/22 Q1016 NOSIG
Station Hyeres
Date/Time 19 August 2019 10:00:00
Wind direction 130°
Wind speed 06 kts
Lowest cloud amount scattered clouds
Temperature 28°C
Dew point 22°C
Humidity 69%
QNH 1016 hPa
Weather condition n/a